createdAt,value
2022-08-30T00:01:32.719Z,14.87
2022-08-30T00:04:07.270Z,15.18
2022-08-30T00:09:12.426Z,16.27
2022-08-30T00:11:45.515Z,15.32
2022-08-30T00:14:18.021Z,15.65
2022-08-30T00:16:52.160Z,16.35
2022-08-30T00:19:25.242Z,16.23
2022-08-30T00:21:58.035Z,14.10
2022-08-30T00:24:30.914Z,16.55
2022-08-30T00:27:04.575Z,23.18
2022-08-30T00:29:38.164Z,22.07
2022-08-30T00:32:12.390Z,15.48
2022-08-30T00:34:45.062Z,15.38
2022-08-30T00:37:17.641Z,15.83
2022-08-30T00:39:50.929Z,16.65
2022-08-30T00:42:23.500Z,15.25
2022-08-30T00:44:56.286Z,16.75
2022-08-30T00:47:29.232Z,19.10
2022-08-30T00:50:01.758Z,16.12
2022-08-30T00:52:35.690Z,16.20
2022-08-30T00:55:09.066Z,14.98
2022-08-30T00:57:44.542Z,14.65
2022-08-30T01:00:19.155Z,18.48
2022-08-30T01:02:51.662Z,15.45
2022-08-30T01:05:25.419Z,15.03
2022-08-30T01:07:58.030Z,15.13
2022-08-30T01:10:31.147Z,17.55
2022-08-30T01:13:03.587Z,15.25
2022-08-30T01:15:36.145Z,15.55
2022-08-30T01:18:10.475Z,14.45
2022-08-30T01:21:13.237Z,15.55
2022-08-30T01:23:47.490Z,17.00
2022-08-30T01:26:21.980Z,16.20
2022-08-30T01:28:58.066Z,16.40
2022-08-30T01:31:31.505Z,15.18
2022-08-30T01:34:07.498Z,15.20
2022-08-30T01:36:44.702Z,16.40
2022-08-30T01:39:19.950Z,20.08
2022-08-30T01:41:53.135Z,16.60
2022-08-30T01:44:26.004Z,14.38
2022-08-30T01:46:58.959Z,16.17
2022-08-30T01:49:33.354Z,15.38
2022-08-30T01:52:07.308Z,16.23
2022-08-30T01:54:42.024Z,16.27
2022-08-30T01:57:17.919Z,14.73
2022-08-30T01:59:51.018Z,15.25
2022-08-30T02:02:27.048Z,14.65
2022-08-30T02:04:59.633Z,14.20
2022-08-30T02:07:32.646Z,16.00
2022-08-30T02:10:06.142Z,16.35
2022-08-30T02:12:39.466Z,15.10
2022-08-30T02:15:13.165Z,15.53
2022-08-30T02:17:47.760Z,14.43
2022-08-30T02:22:52.203Z,15.85
2022-08-30T02:25:25.937Z,14.40
2022-08-30T02:27:59.187Z,16.45
2022-08-30T02:30:32.087Z,14.20
2022-08-30T02:33:04.809Z,14.87
2022-08-30T02:35:39.462Z,16.40
2022-08-30T02:38:13.175Z,15.05
2022-08-30T02:40:46.169Z,16.83
2022-08-30T02:43:19.004Z,15.20
2022-08-30T02:45:51.920Z,15.45
2022-08-30T02:48:25.805Z,18.80
2022-08-30T02:50:59.280Z,14.53
2022-08-30T02:53:32.107Z,17.47
2022-08-30T02:56:04.766Z,17.02
2022-08-30T02:58:38.702Z,14.70
2022-08-30T03:01:13.903Z,15.63
2022-08-30T03:03:47.275Z,15.30
2022-08-30T03:06:20.019Z,17.77
2022-08-30T03:08:53.751Z,16.57
2022-08-30T03:11:26.276Z,15.90
2022-08-30T03:13:59.392Z,15.60
2022-08-30T03:16:32.649Z,16.80
2022-08-30T03:19:07.755Z,17.87
2022-08-30T03:21:40.772Z,16.60
2022-08-30T03:24:13.814Z,17.52
2022-08-30T03:26:47.026Z,16.67
2022-08-30T03:29:19.784Z,18.92
2022-08-30T03:31:53.761Z,17.55
2022-08-30T03:37:02.050Z,19.42
2022-08-30T03:39:34.816Z,18.92
2022-08-30T03:42:07.931Z,21.27
2022-08-30T03:47:14.818Z,18.23
2022-08-30T03:49:47.267Z,20.45
2022-08-30T03:52:19.762Z,17.70
2022-08-30T03:54:52.308Z,20.50
2022-08-30T03:57:25.864Z,18.98
2022-08-30T03:59:59.223Z,20.10
2022-08-30T04:02:32.391Z,18.60
2022-08-30T04:05:05.487Z,22.48
2022-08-30T04:07:38.303Z,18.32
2022-08-30T04:10:11.188Z,19.62
2022-08-30T04:12:49.359Z,19.98
2022-08-30T04:15:28.321Z,20.52
2022-08-30T04:18:02.735Z,21.33
2022-08-30T04:20:35.427Z,24.13
2022-08-30T04:23:13.733Z,19.65
2022-08-30T04:25:46.503Z,19.35
2022-08-30T04:28:20.044Z,20.57
2022-08-30T04:30:52.597Z,18.12
2022-08-30T04:33:25.356Z,22.25
2022-08-30T04:36:00.797Z,18.82
2022-08-30T04:38:34.218Z,24.47
2022-08-30T04:41:37.959Z,19.30
2022-08-30T04:44:19.075Z,21.80
2022-08-30T04:49:17.330Z,17.42
2022-08-30T04:51:50.000Z,16.73
2022-08-30T04:54:22.546Z,14.33
2022-08-30T04:56:55.068Z,14.25
2022-08-30T04:59:28.522Z,14.75
2022-08-30T05:02:01.597Z,15.43
2022-08-30T05:04:34.326Z,13.08
2022-08-30T05:08:54.223Z,18.95
2022-08-30T05:11:28.620Z,13.28
2022-08-30T05:14:01.647Z,13.00
2022-08-30T05:16:35.400Z,15.32
2022-08-30T05:19:08.226Z,13.78
2022-08-30T05:21:41.290Z,11.95
2022-08-30T05:24:14.063Z,14.25
2022-08-30T05:29:21.442Z,12.00
2022-08-30T05:31:53.914Z,12.90
2022-08-30T05:34:27.779Z,10.63
2022-08-30T05:37:00.209Z,9.78
2022-08-30T05:39:51.506Z,10.72
2022-08-30T05:42:09.722Z,10.23
2022-08-30T05:44:44.347Z,9.83
2022-08-30T05:47:17.045Z,10.45
2022-08-30T05:49:50.008Z,10.45
2022-08-30T05:52:22.397Z,10.23
2022-08-30T05:55:03.543Z,9.38
2022-08-30T05:57:41.355Z,10.10
2022-08-30T06:00:18.159Z,9.00
2022-08-30T06:02:54.831Z,9.23
2022-08-30T06:05:27.607Z,8.80
2022-08-30T06:08:00.092Z,9.18
2022-08-30T06:10:33.302Z,10.58
2022-08-30T06:13:06.616Z,8.53
2022-08-30T06:15:39.802Z,8.30
2022-08-30T06:18:13.455Z,8.53
2022-08-30T06:20:51.399Z,8.03
2022-08-30T06:23:24.859Z,8.18
2022-08-30T06:25:58.632Z,7.57
2022-08-30T06:28:32.464Z,7.40
2022-08-30T06:31:10.637Z,7.12
2022-08-30T06:33:44.395Z,8.18
2022-08-30T06:36:24.794Z,6.50
2022-08-30T06:38:58.395Z,6.78
2022-08-30T06:41:32.985Z,6.20
2022-08-30T06:44:06.047Z,6.00
2022-08-30T06:46:39.581Z,5.42
2022-08-30T06:49:12.836Z,6.40
2022-08-30T06:51:45.871Z,5.62
2022-08-30T06:54:18.241Z,6.65
2022-08-30T06:56:59.104Z,5.53
2022-08-30T06:59:26.212Z,6.85
2022-08-30T07:04:33.454Z,5.42
2022-08-30T07:07:06.227Z,4.78
2022-08-30T07:09:40.896Z,5.12
2022-08-30T07:12:15.314Z,5.10
2022-08-30T07:14:48.066Z,6.08
2022-08-30T07:17:25.529Z,6.22
2022-08-30T07:19:57.898Z,4.37
2022-08-30T07:22:30.340Z,4.80
2022-08-30T07:25:02.929Z,8.68
2022-08-30T07:27:37.725Z,4.80
2022-08-30T07:30:11.681Z,8.15
2022-08-30T07:32:44.525Z,4.47
2022-08-30T07:35:17.510Z,4.50
2022-08-30T07:37:50.633Z,5.33
2022-08-30T07:40:23.609Z,6.40
2022-08-30T07:42:57.269Z,4.37
2022-08-30T07:45:31.660Z,5.10
2022-08-30T07:48:04.579Z,4.40
2022-08-30T07:50:37.378Z,9.75
2022-08-30T07:53:11.266Z,7.83
2022-08-30T07:55:44.615Z,4.22
2022-08-30T07:58:18.106Z,3.42
2022-08-30T08:00:51.556Z,7.12
2022-08-30T08:03:25.146Z,5.75
2022-08-30T08:08:30.383Z,4.42
2022-08-30T08:11:20.388Z,3.85
2022-08-30T08:13:54.592Z,5.22
2022-08-30T08:16:29.185Z,6.40
2022-08-30T08:19:01.587Z,6.58
2022-08-30T08:21:35.187Z,4.33
2022-08-30T08:24:07.819Z,5.78
2022-08-30T08:26:41.913Z,4.12
2022-08-30T08:29:15.768Z,6.22
2022-08-30T08:31:48.249Z,5.15
2022-08-30T08:34:22.982Z,6.40
2022-08-30T08:39:27.805Z,5.70
2022-08-30T08:42:08.141Z,7.00
2022-08-30T08:44:57.902Z,6.72
2022-08-30T08:47:42.156Z,3.52
2022-08-30T08:50:22.622Z,4.90
2022-08-30T08:53:45.474Z,4.35
2022-08-30T08:55:56.871Z,3.62
2022-08-30T08:58:48.293Z,3.05
2022-08-30T09:01:24.109Z,4.47
2022-08-30T09:03:58.419Z,4.30
2022-08-30T09:06:59.805Z,3.87
2022-08-30T09:09:36.369Z,3.08
2022-08-30T09:12:11.081Z,4.80
2022-08-30T09:14:54.433Z,4.50
2022-08-30T09:17:27.115Z,4.40
2022-08-30T09:20:02.692Z,3.98
2022-08-30T09:22:39.283Z,5.92
2022-08-30T09:25:27.025Z,5.85
2022-08-30T09:28:14.751Z,3.15
2022-08-30T09:31:12.535Z,2.80
2022-08-30T09:34:07.001Z,4.85
2022-08-30T09:36:51.561Z,4.33
2022-08-30T09:39:35.650Z,6.25
2022-08-30T09:42:25.991Z,2.85
2022-08-30T09:45:00.529Z,4.17
2022-08-30T09:47:35.286Z,6.92
2022-08-30T09:50:18.081Z,3.45
2022-08-30T09:53:09.975Z,3.83
2022-08-30T09:56:00.860Z,4.50
2022-08-30T09:58:50.153Z,2.62
2022-08-30T10:01:27.198Z,2.83
2022-08-30T10:04:18.577Z,6.42
2022-08-30T10:07:01.405Z,3.47
2022-08-30T10:09:51.051Z,3.55
2022-08-30T10:12:37.518Z,3.20
2022-08-30T10:15:38.321Z,3.40
2022-08-30T10:18:26.393Z,5.65
2022-08-30T10:21:19.046Z,3.62
2022-08-30T10:23:59.989Z,2.87
2022-08-30T10:26:46.224Z,2.92
2022-08-30T10:29:31.416Z,3.70
2022-08-30T10:32:18.110Z,11.35
2022-08-30T10:35:05.028Z,5.10
2022-08-30T10:37:50.411Z,6.50
2022-08-30T10:40:55.410Z,4.50
2022-08-30T10:43:51.264Z,4.07
2022-08-30T10:46:55.576Z,4.42
2022-08-30T10:49:30.139Z,4.33
2022-08-30T10:52:38.405Z,9.78
2022-08-30T10:55:24.393Z,3.15
2022-08-30T10:58:03.189Z,3.25
2022-08-30T11:00:44.018Z,3.30
2022-08-30T11:03:33.130Z,3.12
2022-08-30T11:06:30.110Z,4.20
2022-08-30T11:09:35.912Z,5.08
2022-08-30T11:12:19.919Z,4.75
2022-08-30T11:14:54.186Z,3.47
2022-08-30T11:20:25.297Z,4.85
2022-08-30T11:23:30.554Z,3.58
2022-08-30T11:26:13.983Z,4.50
2022-08-30T11:28:52.988Z,4.75
2022-08-30T11:31:38.388Z,3.00
2022-08-30T11:34:12.908Z,2.62
2022-08-30T11:36:56.259Z,2.90
2022-08-30T11:39:50.246Z,2.42
2022-08-30T11:42:32.747Z,3.85
2022-08-30T11:45:29.583Z,4.35
2022-08-30T11:48:10.155Z,5.33
2022-08-30T11:50:56.443Z,3.30
2022-08-30T11:54:00.519Z,4.72
2022-08-30T11:59:49.292Z,2.52
2022-08-30T12:02:52.263Z,3.67
2022-08-30T12:05:51.480Z,2.83
2022-08-30T12:08:38.813Z,2.65
2022-08-30T12:11:19.791Z,5.55
2022-08-30T12:13:53.963Z,5.62
2022-08-30T12:19:21.286Z,7.10
2022-08-30T12:21:59.393Z,4.25
2022-08-30T12:24:40.401Z,3.08
2022-08-30T12:27:34.172Z,4.03
2022-08-30T12:30:10.046Z,2.33
2022-08-30T12:32:48.750Z,4.95
2022-08-30T12:35:28.345Z,2.62
2022-08-30T12:38:07.649Z,4.55
2022-08-30T12:40:41.720Z,2.55
2022-08-30T12:43:25.011Z,2.77
2022-08-30T12:46:07.502Z,12.63
2022-08-30T12:48:39.847Z,8.68
2022-08-30T12:51:15.084Z,4.72
2022-08-30T12:53:51.389Z,4.83
2022-08-30T12:56:40.628Z,2.87
2022-08-30T13:01:37.953Z,4.12
2022-08-30T13:04:22.998Z,3.05
2022-08-30T13:07:02.325Z,5.55
2022-08-30T13:09:44.163Z,4.90
2022-08-30T13:12:27.591Z,5.10
2022-08-30T13:15:21.919Z,2.95
2022-08-30T13:18:26.991Z,5.75
2022-08-30T13:21:28.330Z,5.60
2022-08-30T13:24:05.695Z,4.15
2022-08-30T13:26:41.113Z,4.30
2022-08-30T13:29:19.645Z,3.30
2022-08-30T13:31:52.143Z,8.50
2022-08-30T13:34:24.947Z,3.15
2022-08-30T13:37:01.179Z,7.37
2022-08-30T13:39:34.092Z,7.95
2022-08-30T13:44:43.646Z,6.15
2022-08-30T13:47:33.070Z,7.28
2022-08-30T13:49:52.823Z,7.70
2022-08-30T13:52:26.008Z,7.57
2022-08-30T13:54:58.676Z,4.12
2022-08-30T14:00:28.259Z,6.42
2022-08-30T14:03:01.973Z,2.17
2022-08-30T14:05:49.319Z,6.70
2022-08-30T14:10:51.555Z,4.78
2022-08-30T14:13:24.035Z,2.50
2022-08-30T14:18:32.259Z,3.22
2022-08-30T14:21:04.798Z,4.12
2022-08-30T14:23:38.087Z,5.60
2022-08-30T14:26:21.979Z,5.00
2022-08-30T14:28:54.949Z,2.80
2022-08-30T14:31:27.656Z,2.98
2022-08-30T14:34:04.220Z,3.10
2022-08-30T14:36:39.454Z,7.15
2022-08-30T14:39:16.010Z,4.25
2022-08-30T14:41:52.051Z,4.62
2022-08-30T14:44:25.138Z,7.80
2022-08-30T14:46:58.231Z,5.63
2022-08-30T14:49:32.677Z,3.37
2022-08-30T14:52:06.726Z,7.97
2022-08-30T14:54:40.432Z,8.00
2022-08-30T14:57:14.036Z,5.50
2022-08-30T14:59:48.613Z,4.72
2022-08-30T15:02:26.919Z,5.90
2022-08-30T15:04:56.824Z,3.67
2022-08-30T15:07:29.893Z,4.03
2022-08-30T15:10:02.474Z,3.17
2022-08-30T15:12:35.718Z,5.43
2022-08-30T15:15:28.998Z,2.90
2022-08-30T15:18:01.794Z,5.17
2022-08-30T15:20:34.853Z,9.30
2022-08-30T15:23:08.476Z,8.85
2022-08-30T15:25:42.423Z,5.00
2022-08-30T15:28:15.928Z,4.85
2022-08-30T15:30:50.363Z,5.80
2022-08-30T15:33:24.297Z,3.15
2022-08-30T15:35:57.095Z,6.08
2022-08-30T15:38:31.252Z,3.90
2022-08-30T15:41:07.974Z,6.10
2022-08-30T15:43:42.284Z,3.47
2022-08-30T15:46:30.917Z,6.17
2022-08-30T15:49:21.752Z,5.55
2022-08-30T15:51:54.730Z,8.98
2022-08-30T15:54:27.760Z,7.35
2022-08-30T15:57:01.440Z,13.30
2022-08-30T15:59:35.443Z,9.08
2022-08-30T16:02:08.876Z,13.03
2022-08-30T16:04:42.020Z,13.62
2022-08-30T16:07:15.189Z,16.90
2022-08-30T16:09:49.392Z,7.12
2022-08-30T16:12:23.910Z,9.00
2022-08-30T16:14:56.303Z,10.18
2022-08-30T16:17:28.752Z,6.47
2022-08-30T16:20:04.118Z,12.35
2022-08-30T16:22:37.519Z,6.83
2022-08-30T16:25:11.457Z,9.18
2022-08-30T16:27:45.375Z,5.20
2022-08-30T16:30:19.620Z,7.62
2022-08-30T16:32:52.059Z,9.58
2022-08-30T16:35:24.645Z,5.35
2022-08-30T16:37:59.415Z,6.05
2022-08-30T16:40:33.301Z,6.97
2022-08-30T16:43:09.087Z,7.35
2022-08-30T16:45:43.030Z,8.50
2022-08-30T16:48:16.699Z,6.00
2022-08-30T16:50:49.729Z,5.28
2022-08-30T16:53:23.359Z,4.35
2022-08-30T16:55:57.344Z,7.12
2022-08-30T16:58:30.104Z,5.60
2022-08-30T17:01:02.925Z,6.67
2022-08-30T17:03:36.406Z,6.37
2022-08-30T17:06:09.259Z,10.32
2022-08-30T17:08:44.010Z,13.03
2022-08-30T17:11:17.325Z,7.22
2022-08-30T17:13:51.112Z,14.35
2022-08-30T17:16:28.061Z,6.53
2022-08-30T17:19:00.790Z,8.73
2022-08-30T17:21:34.697Z,5.30
2022-08-30T17:24:09.762Z,8.78
2022-08-30T17:26:42.819Z,6.78
2022-08-30T17:29:15.916Z,9.18
2022-08-30T17:31:50.984Z,4.67
2022-08-30T17:34:24.358Z,19.73
2022-08-30T17:37:00.207Z,8.80
2022-08-30T17:39:32.990Z,8.05
2022-08-30T17:42:05.848Z,6.37
2022-08-30T17:44:42.392Z,9.83
2022-08-30T17:49:44.914Z,5.70
2022-08-30T17:52:18.649Z,6.78
2022-08-30T17:54:52.042Z,15.38
2022-08-30T17:57:24.797Z,8.05
2022-08-30T17:59:58.050Z,8.75
2022-08-30T18:02:30.640Z,8.43
2022-08-30T18:05:04.924Z,9.93
2022-08-30T18:07:38.353Z,17.37
2022-08-30T18:10:13.437Z,11.68
2022-08-30T18:12:49.305Z,5.45
2022-08-30T18:17:53.661Z,12.43
2022-08-30T18:20:27.230Z,17.75
2022-08-30T18:23:02.782Z,12.20
2022-08-30T18:28:12.507Z,10.48
2022-08-30T18:30:47.398Z,9.90
2022-08-30T18:33:21.263Z,14.53
2022-08-30T18:35:53.860Z,12.85
2022-08-30T18:38:26.431Z,11.30
2022-08-30T18:41:02.529Z,9.43
2022-08-30T18:43:35.684Z,10.60
2022-08-30T18:46:10.563Z,8.15
2022-08-30T18:48:45.167Z,9.10
2022-08-30T18:51:21.379Z,12.63
2022-08-30T18:53:56.344Z,7.40
2022-08-30T18:59:02.826Z,13.78
2022-08-30T19:01:37.698Z,10.25
2022-08-30T19:04:22.337Z,8.80
2022-08-30T19:06:47.551Z,8.60
2022-08-30T19:09:21.008Z,26.25
2022-08-30T19:11:53.696Z,9.90
2022-08-30T19:14:28.066Z,6.67
2022-08-30T19:17:06.488Z,7.20
2022-08-30T19:19:48.372Z,5.90
2022-08-30T19:22:13.985Z,9.30
2022-08-30T19:24:51.327Z,18.15
2022-08-30T19:27:37.551Z,14.07
2022-08-30T19:29:58.322Z,6.45
2022-08-30T19:32:31.465Z,6.47
2022-08-30T19:35:04.151Z,16.55
2022-08-30T19:37:37.393Z,10.03
2022-08-30T19:40:14.415Z,5.47
2022-08-30T19:42:48.101Z,6.08
2022-08-30T19:45:23.826Z,12.58
2022-08-30T19:47:57.910Z,5.20
2022-08-30T19:50:30.415Z,10.70
2022-08-30T19:53:03.729Z,14.83
2022-08-30T19:55:37.354Z,8.60
2022-08-30T19:58:10.517Z,12.20
2022-08-30T20:00:54.566Z,11.40
2022-08-30T20:03:20.309Z,12.93
2022-08-30T20:05:54.097Z,26.55
2022-08-30T20:11:01.560Z,12.33
2022-08-30T20:13:34.421Z,11.05
2022-08-30T20:16:07.675Z,9.98
2022-08-30T20:18:42.672Z,11.08
2022-08-30T20:21:16.705Z,9.50
2022-08-30T20:23:50.207Z,10.18
2022-08-30T20:26:27.414Z,15.93
2022-08-30T20:28:59.822Z,8.43
2022-08-30T20:31:34.239Z,8.18
2022-08-30T20:34:06.942Z,7.03
2022-08-30T20:36:40.601Z,9.15
2022-08-30T20:39:17.415Z,8.50
2022-08-30T20:41:50.276Z,10.98
2022-08-30T20:44:24.055Z,9.93
2022-08-30T20:46:58.092Z,10.35
2022-08-30T20:49:31.000Z,7.37
2022-08-30T20:52:04.980Z,9.40
2022-08-30T20:54:38.490Z,7.20
2022-08-30T20:57:11.033Z,8.18
2022-08-30T20:59:45.486Z,8.05
2022-08-30T21:02:19.062Z,11.63
2022-08-30T21:04:51.626Z,15.93
2022-08-30T21:07:24.302Z,8.18
2022-08-30T21:09:56.938Z,10.88
2022-08-30T21:12:30.855Z,7.30
2022-08-30T21:15:26.976Z,7.87
2022-08-30T21:20:13.597Z,6.20
2022-08-30T21:22:46.314Z,7.30
2022-08-30T21:25:19.964Z,5.08
2022-08-30T21:27:53.859Z,9.73
2022-08-30T21:30:26.818Z,11.22
2022-08-30T21:33:00.431Z,6.40
2022-08-30T21:35:52.398Z,5.85
2022-08-30T21:38:25.177Z,6.60
2022-08-30T21:40:57.569Z,5.78
2022-08-30T21:43:30.046Z,10.40
2022-08-30T21:46:09.471Z,5.67
2022-08-30T21:48:43.215Z,9.78
2022-08-30T21:51:15.920Z,7.53
2022-08-30T21:53:49.468Z,5.27
2022-08-30T21:56:23.590Z,5.17
2022-08-30T21:58:57.208Z,5.92
2022-08-30T22:01:31.001Z,5.17
2022-08-30T22:04:04.850Z,5.67
2022-08-30T22:06:38.502Z,6.05
2022-08-30T22:09:14.097Z,5.10
2022-08-30T22:11:47.599Z,4.90
2022-08-30T22:14:23.551Z,5.20
2022-08-30T22:16:56.785Z,5.78
2022-08-30T22:19:33.808Z,6.10
2022-08-30T22:22:04.015Z,5.85
2022-08-30T22:24:36.947Z,6.22
2022-08-30T22:27:10.127Z,7.45
2022-08-30T22:29:42.690Z,8.08
2022-08-30T22:32:15.126Z,8.58
2022-08-30T22:34:48.063Z,10.10
2022-08-30T22:37:21.705Z,6.78
2022-08-30T22:39:54.978Z,9.60
2022-08-30T22:42:28.155Z,8.98
2022-08-30T22:45:00.802Z,8.48
2022-08-30T22:47:33.544Z,8.55
2022-08-30T22:50:06.821Z,7.65
2022-08-30T22:55:22.373Z,9.28
2022-08-30T22:57:55.507Z,8.30
2022-08-30T23:00:28.213Z,8.28
2022-08-30T23:03:00.931Z,8.33
2022-08-30T23:05:33.638Z,8.63
2022-08-30T23:08:08.321Z,9.75
2022-08-30T23:10:42.410Z,12.20
2022-08-30T23:13:15.352Z,11.45
2022-08-30T23:15:48.062Z,11.80
2022-08-30T23:18:20.637Z,14.15
2022-08-30T23:20:53.526Z,10.28
2022-08-30T23:23:44.121Z,19.48
2022-08-30T23:26:37.386Z,14.28
2022-08-30T23:29:26.231Z,16.42
2022-08-30T23:32:17.183Z,14.07
2022-08-30T23:35:07.560Z,14.18
2022-08-30T23:37:58.725Z,11.00
2022-08-30T23:40:49.385Z,10.23
2022-08-30T23:43:39.593Z,11.63
2022-08-30T23:46:30.652Z,11.55
2022-08-30T23:49:21.421Z,11.73
2022-08-30T23:52:12.400Z,10.00
2022-08-30T23:55:02.507Z,12.43
2022-08-30T23:57:53.257Z,16.45
